sensor_id;sensor_type;location;lat;lon;timestamp;P1;durP1;ratioP1;P2;durP2;ratioP2
16073;SDS011;8141;52.664;5.074;2023-05-02T00:00:42;2.73;;;2.03;;
16073;SDS011;8141;52.664;5.074;2023-05-02T00:03:09;3.10;;;1.90;;
16073;SDS011;8141;52.664;5.074;2023-05-02T00:05:36;1.87;;;1.60;;
16073;SDS011;8141;52.664;5.074;2023-05-02T00:08:02;2.10;;;1.90;;
16073;SDS011;8141;52.664;5.074;2023-05-02T00:10:28;2.10;;;1.50;;
16073;SDS011;8141;52.664;5.074;2023-05-02T00:12:54;1.90;;;1.50;;
16073;SDS011;8141;52.664;5.074;2023-05-02T00:15:20;2.40;;;1.63;;
16073;SDS011;8141;52.664;5.074;2023-05-02T00:17:46;2.70;;;1.83;;
16073;SDS011;8141;52.664;5.074;2023-05-02T00:20:11;1.97;;;1.30;;
16073;SDS011;8141;52.664;5.074;2023-05-02T00:22:38;1.63;;;1.53;;
16073;SDS011;8141;52.664;5.074;2023-05-02T00:25:04;2.47;;;1.50;;
16073;SDS011;8141;52.664;5.074;2023-05-02T00:27:31;3.10;;;1.53;;
16073;SDS011;8141;52.664;5.074;2023-05-02T00:29:57;2.50;;;1.80;;
16073;SDS011;8141;52.664;5.074;2023-05-02T00:32:24;1.87;;;1.43;;
16073;SDS011;8141;52.664;5.074;2023-05-02T00:34:50;2.43;;;1.73;;
16073;SDS011;8141;52.664;5.074;2023-05-02T00:37:17;1.90;;;1.40;;
16073;SDS011;8141;52.664;5.074;2023-05-02T00:39:42;1.67;;;1.30;;
16073;SDS011;8141;52.664;5.074;2023-05-02T00:42:09;2.33;;;1.50;;
16073;SDS011;8141;52.664;5.074;2023-05-02T00:44:35;4.27;;;1.87;;
16073;SDS011;8141;52.664;5.074;2023-05-02T00:47:01;4.60;;;2.30;;
16073;SDS011;8141;52.664;5.074;2023-05-02T00:49:27;3.40;;;1.30;;
16073;SDS011;8141;52.664;5.074;2023-05-02T00:51:53;3.10;;;1.60;;
16073;SDS011;8141;52.664;5.074;2023-05-02T00:54:19;2.20;;;1.43;;
16073;SDS011;8141;52.664;5.074;2023-05-02T00:56:45;2.40;;;1.60;;
16073;SDS011;8141;52.664;5.074;2023-05-02T00:59:11;1.43;;;1.30;;
16073;SDS011;8141;52.664;5.074;2023-05-02T01:01:59;1.83;;;1.30;;
16073;SDS011;8141;52.664;5.074;2023-05-02T01:08:05;1.70;;;1.27;;
16073;SDS011;8141;52.664;5.074;2023-05-02T01:11:00;1.27;;;1.17;;
16073;SDS011;8141;52.664;5.074;2023-05-02T01:13:35;1.83;;;1.13;;
16073;SDS011;8141;52.664;5.074;2023-05-02T01:16:02;1.90;;;1.33;;
16073;SDS011;8141;52.664;5.074;2023-05-02T01:18:32;2.10;;;1.40;;
16073;SDS011;8141;52.664;5.074;2023-05-02T01:21:04;1.27;;;1.10;;
16073;SDS011;8141;52.664;5.074;2023-05-02T01:26:45;1.20;;;0.97;;
16073;SDS011;8141;52.664;5.074;2023-05-02T01:29:42;1.37;;;1.27;;
16073;SDS011;8141;52.664;5.074;2023-05-02T01:32:10;3.93;;;1.60;;
16073;SDS011;8141;52.664;5.074;2023-05-02T01:34:39;2.47;;;1.30;;
16073;SDS011;8141;52.664;5.074;2023-05-02T01:37:07;1.90;;;1.30;;
16073;SDS011;8141;52.664;5.074;2023-05-02T01:39:36;1.33;;;1.20;;
16073;SDS011;8141;52.664;5.074;2023-05-02T01:42:04;2.27;;;1.07;;
16073;SDS011;8141;52.664;5.074;2023-05-02T01:44:30;1.83;;;1.30;;
16073;SDS011;8141;52.664;5.074;2023-05-02T01:46:58;1.97;;;1.10;;
16073;SDS011;8141;52.664;5.074;2023-05-02T01:49:27;1.20;;;1.10;;
16073;SDS011;8141;52.664;5.074;2023-05-02T01:51:55;1.67;;;1.20;;
16073;SDS011;8141;52.664;5.074;2023-05-02T01:54:27;1.77;;;1.00;;
16073;SDS011;8141;52.664;5.074;2023-05-02T01:56:54;1.97;;;1.20;;
16073;SDS011;8141;52.664;5.074;2023-05-02T01:59:22;1.00;;;0.90;;
16073;SDS011;8141;52.664;5.074;2023-05-02T02:01:49;1.90;;;1.17;;
16073;SDS011;8141;52.664;5.074;2023-05-02T02:04:16;1.33;;;0.93;;
16073;SDS011;8141;52.664;5.074;2023-05-02T02:06:45;1.60;;;1.10;;
16073;SDS011;8141;52.664;5.074;2023-05-02T02:09:17;5.30;;;1.20;;
16073;SDS011;8141;52.664;5.074;2023-05-02T02:11:48;5.20;;;1.10;;
16073;SDS011;8141;52.664;5.074;2023-05-02T02:14:19;1.90;;;1.20;;
16073;SDS011;8141;52.664;5.074;2023-05-02T02:16:52;2.70;;;1.27;;
16073;SDS011;8141;52.664;5.074;2023-05-02T02:19:21;1.33;;;0.87;;
16073;SDS011;8141;52.664;5.074;2023-05-02T02:21:47;1.60;;;1.07;;
16073;SDS011;8141;52.664;5.074;2023-05-02T02:24:15;1.63;;;1.13;;
16073;SDS011;8141;52.664;5.074;2023-05-02T02:26:45;2.27;;;1.13;;
16073;SDS011;8141;52.664;5.074;2023-05-02T02:29:10;1.47;;;1.00;;
16073;SDS011;8141;52.664;5.074;2023-05-02T02:31:36;1.40;;;1.00;;
16073;SDS011;8141;52.664;5.074;2023-05-02T02:34:03;1.47;;;0.80;;
16073;SDS011;8141;52.664;5.074;2023-05-02T02:42:13;1.90;;;1.00;;
16073;SDS011;8141;52.664;5.074;2023-05-02T02:45:14;1.17;;;0.93;;
16073;SDS011;8141;52.664;5.074;2023-05-02T02:51:12;1.33;;;1.10;;
16073;SDS011;8141;52.664;5.074;2023-05-02T02:53:59;1.40;;;0.90;;
16073;SDS011;8141;52.664;5.074;2023-05-02T02:56:29;1.90;;;1.20;;
16073;SDS011;8141;52.664;5.074;2023-05-02T02:59:58;2.17;;;1.10;;
16073;SDS011;8141;52.664;5.074;2023-05-02T03:02:33;2.73;;;1.17;;
16073;SDS011;8141;52.664;5.074;2023-05-02T03:05:01;2.93;;;0.80;;
16073;SDS011;8141;52.664;5.074;2023-05-02T03:07:28;2.27;;;1.00;;
16073;SDS011;8141;52.664;5.074;2023-05-02T03:09:55;1.67;;;0.87;;
16073;SDS011;8141;52.664;5.074;2023-05-02T03:12:21;1.60;;;0.90;;
16073;SDS011;8141;52.664;5.074;2023-05-02T03:14:46;2.70;;;1.00;;
16073;SDS011;8141;52.664;5.074;2023-05-02T03:17:12;0.97;;;0.80;;
16073;SDS011;8141;52.664;5.074;2023-05-02T03:19:38;2.10;;;1.67;;
16073;SDS011;8141;52.664;5.074;2023-05-02T03:22:04;2.07;;;1.20;;
16073;SDS011;8141;52.664;5.074;2023-05-02T03:24:30;2.47;;;1.10;;
16073;SDS011;8141;52.664;5.074;2023-05-02T03:26:56;1.87;;;1.13;;
16073;SDS011;8141;52.664;5.074;2023-05-02T03:29:23;2.13;;;1.13;;
16073;SDS011;8141;52.664;5.074;2023-05-02T03:31:50;1.37;;;0.90;;
16073;SDS011;8141;52.664;5.074;2023-05-02T03:34:16;1.83;;;1.10;;
16073;SDS011;8141;52.664;5.074;2023-05-02T03:36:43;2.27;;;0.80;;
16073;SDS011;8141;52.664;5.074;2023-05-02T03:39:09;1.43;;;0.80;;
16073;SDS011;8141;52.664;5.074;2023-05-02T03:41:35;1.33;;;0.90;;
16073;SDS011;8141;52.664;5.074;2023-05-02T03:44:00;1.93;;;1.00;;
16073;SDS011;8141;52.664;5.074;2023-05-02T03:46:26;3.20;;;1.27;;
16073;SDS011;8141;52.664;5.074;2023-05-02T03:48:52;3.13;;;1.00;;
16073;SDS011;8141;52.664;5.074;2023-05-02T03:51:18;3.20;;;1.03;;
16073;SDS011;8141;52.664;5.074;2023-05-02T03:53:44;4.13;;;1.30;;
16073;SDS011;8141;52.664;5.074;2023-05-02T03:56:10;4.30;;;1.20;;
16073;SDS011;8141;52.664;5.074;2023-05-02T03:58:36;2.03;;;1.17;;
16073;SDS011;8141;52.664;5.074;2023-05-02T04:01:02;3.90;;;1.17;;
16073;SDS011;8141;52.664;5.074;2023-05-02T04:03:28;5.33;;;2.03;;
16073;SDS011;8141;52.664;5.074;2023-05-02T04:05:53;2.07;;;1.10;;
16073;SDS011;8141;52.664;5.074;2023-05-02T04:08:19;3.10;;;1.00;;
16073;SDS011;8141;52.664;5.074;2023-05-02T04:10:45;2.03;;;1.07;;
16073;SDS011;8141;52.664;5.074;2023-05-02T04:13:11;2.20;;;1.27;;
16073;SDS011;8141;52.664;5.074;2023-05-02T04:15:36;2.63;;;0.97;;
16073;SDS011;8141;52.664;5.074;2023-05-02T04:18:02;3.50;;;1.13;;
16073;SDS011;8141;52.664;5.074;2023-05-02T04:20:28;2.73;;;0.90;;
16073;SDS011;8141;52.664;5.074;2023-05-02T04:22:54;2.93;;;1.17;;
16073;SDS011;8141;52.664;5.074;2023-05-02T04:25:20;3.23;;;1.00;;
16073;SDS011;8141;52.664;5.074;2023-05-02T04:27:45;3.50;;;1.00;;
16073;SDS011;8141;52.664;5.074;2023-05-02T04:30:11;2.43;;;1.00;;
16073;SDS011;8141;52.664;5.074;2023-05-02T04:32:37;3.57;;;1.10;;
16073;SDS011;8141;52.664;5.074;2023-05-02T04:35:03;3.63;;;1.00;;
16073;SDS011;8141;52.664;5.074;2023-05-02T04:37:30;1.20;;;0.70;;
16073;SDS011;8141;52.664;5.074;2023-05-02T04:39:55;2.03;;;0.93;;
16073;SDS011;8141;52.664;5.074;2023-05-02T04:42:22;2.10;;;0.87;;
16073;SDS011;8141;52.664;5.074;2023-05-02T04:44:48;1.70;;;0.93;;
16073;SDS011;8141;52.664;5.074;2023-05-02T04:47:14;2.67;;;0.93;;
16073;SDS011;8141;52.664;5.074;2023-05-02T04:49:40;1.83;;;0.77;;
16073;SDS011;8141;52.664;5.074;2023-05-02T04:52:07;2.73;;;0.93;;
16073;SDS011;8141;52.664;5.074;2023-05-02T04:54:34;4.97;;;1.07;;
16073;SDS011;8141;52.664;5.074;2023-05-02T04:57:00;10.60;;;1.30;;
16073;SDS011;8141;52.664;5.074;2023-05-02T04:59:28;5.00;;;1.10;;
16073;SDS011;8141;52.664;5.074;2023-05-02T05:01:54;5.90;;;1.10;;
16073;SDS011;8141;52.664;5.074;2023-05-02T05:04:21;9.50;;;1.43;;
16073;SDS011;8141;52.664;5.074;2023-05-02T05:06:46;5.53;;;1.03;;
16073;SDS011;8141;52.664;5.074;2023-05-02T05:09:13;5.10;;;1.10;;
16073;SDS011;8141;52.664;5.074;2023-05-02T05:11:39;3.73;;;1.10;;
16073;SDS011;8141;52.664;5.074;2023-05-02T05:14:07;2.27;;;1.10;;
16073;SDS011;8141;52.664;5.074;2023-05-02T05:16:33;2.47;;;0.93;;
16073;SDS011;8141;52.664;5.074;2023-05-02T05:18:59;3.67;;;1.23;;
16073;SDS011;8141;52.664;5.074;2023-05-02T05:21:25;4.50;;;1.17;;
16073;SDS011;8141;52.664;5.074;2023-05-02T05:23:51;4.50;;;1.00;;
16073;SDS011;8141;52.664;5.074;2023-05-02T05:26:17;4.37;;;1.43;;
16073;SDS011;8141;52.664;5.074;2023-05-02T05:28:43;2.27;;;1.00;;
16073;SDS011;8141;52.664;5.074;2023-05-02T05:31:10;2.83;;;1.17;;
16073;SDS011;8141;52.664;5.074;2023-05-02T05:33:38;1.90;;;0.77;;
16073;SDS011;8141;52.664;5.074;2023-05-02T05:36:04;5.20;;;1.30;;
16073;SDS011;8141;52.664;5.074;2023-05-02T05:38:35;3.07;;;0.90;;
16073;SDS011;8141;52.664;5.074;2023-05-02T05:41:01;3.03;;;0.97;;
16073;SDS011;8141;52.664;5.074;2023-05-02T05:43:27;1.57;;;0.73;;
16073;SDS011;8141;52.664;5.074;2023-05-02T05:45:54;2.40;;;0.87;;
16073;SDS011;8141;52.664;5.074;2023-05-02T05:48:20;2.67;;;1.10;;
16073;SDS011;8141;52.664;5.074;2023-05-02T05:50:47;1.40;;;0.77;;
16073;SDS011;8141;52.664;5.074;2023-05-02T05:53:13;3.73;;;0.90;;
16073;SDS011;8141;52.664;5.074;2023-05-02T05:55:39;1.53;;;0.53;;
16073;SDS011;8141;52.664;5.074;2023-05-02T05:58:06;3.03;;;0.90;;
16073;SDS011;8141;52.664;5.074;2023-05-02T06:00:35;3.63;;;0.83;;
16073;SDS011;8141;52.664;5.074;2023-05-02T06:03:02;1.77;;;0.90;;
16073;SDS011;8141;52.664;5.074;2023-05-02T06:05:29;2.83;;;0.70;;
16073;SDS011;8141;52.664;5.074;2023-05-02T06:07:55;1.07;;;0.73;;
16073;SDS011;8141;52.664;5.074;2023-05-02T06:10:21;1.93;;;0.70;;
16073;SDS011;8141;52.664;5.074;2023-05-02T06:12:47;1.23;;;0.60;;
16073;SDS011;8141;52.664;5.074;2023-05-02T06:15:13;2.70;;;0.83;;
16073;SDS011;8141;52.664;5.074;2023-05-02T06:17:40;2.23;;;0.90;;
16073;SDS011;8141;52.664;5.074;2023-05-02T06:20:05;1.70;;;0.83;;
16073;SDS011;8141;52.664;5.074;2023-05-02T06:22:32;1.37;;;0.60;;
16073;SDS011;8141;52.664;5.074;2023-05-02T06:24:58;1.23;;;0.80;;
16073;SDS011;8141;52.664;5.074;2023-05-02T06:27:24;1.27;;;0.67;;
16073;SDS011;8141;52.664;5.074;2023-05-02T06:29:50;1.63;;;0.80;;
16073;SDS011;8141;52.664;5.074;2023-05-02T06:32:17;1.23;;;0.47;;
16073;SDS011;8141;52.664;5.074;2023-05-02T06:34:43;2.03;;;0.80;;
16073;SDS011;8141;52.664;5.074;2023-05-02T06:37:08;2.40;;;0.70;;
16073;SDS011;8141;52.664;5.074;2023-05-02T06:39:35;0.70;;;0.50;;
16073;SDS011;8141;52.664;5.074;2023-05-02T06:42:01;0.97;;;0.60;;
16073;SDS011;8141;52.664;5.074;2023-05-02T06:44:27;1.97;;;0.90;;
16073;SDS011;8141;52.664;5.074;2023-05-02T06:46:53;1.50;;;0.80;;
16073;SDS011;8141;52.664;5.074;2023-05-02T06:49:22;1.70;;;0.80;;
16073;SDS011;8141;52.664;5.074;2023-05-02T06:51:47;1.93;;;1.10;;
16073;SDS011;8141;52.664;5.074;2023-05-02T06:54:13;1.43;;;0.73;;
16073;SDS011;8141;52.664;5.074;2023-05-02T06:56:40;1.97;;;0.63;;
16073;SDS011;8141;52.664;5.074;2023-05-02T06:59:06;0.67;;;0.67;;
16073;SDS011;8141;52.664;5.074;2023-05-02T07:01:32;1.43;;;0.90;;
16073;SDS011;8141;52.664;5.074;2023-05-02T07:03:59;1.60;;;0.80;;
16073;SDS011;8141;52.664;5.074;2023-05-02T07:06:28;2.53;;;0.80;;
16073;SDS011;8141;52.664;5.074;2023-05-02T07:08:54;1.10;;;0.70;;
16073;SDS011;8141;52.664;5.074;2023-05-02T07:11:21;2.23;;;0.93;;
16073;SDS011;8141;52.664;5.074;2023-05-02T07:13:48;2.17;;;0.60;;
16073;SDS011;8141;52.664;5.074;2023-05-02T07:16:14;1.33;;;0.67;;
16073;SDS011;8141;52.664;5.074;2023-05-02T07:18:40;1.53;;;0.70;;
16073;SDS011;8141;52.664;5.074;2023-05-02T07:21:06;1.37;;;0.60;;
16073;SDS011;8141;52.664;5.074;2023-05-02T07:23:32;2.50;;;0.80;;
16073;SDS011;8141;52.664;5.074;2023-05-02T07:25:58;1.23;;;0.60;;
16073;SDS011;8141;52.664;5.074;2023-05-02T07:28:24;2.67;;;0.90;;
16073;SDS011;8141;52.664;5.074;2023-05-02T07:30:50;1.00;;;0.50;;
16073;SDS011;8141;52.664;5.074;2023-05-02T07:33:16;0.73;;;0.53;;
16073;SDS011;8141;52.664;5.074;2023-05-02T07:35:42;1.20;;;0.67;;
16073;SDS011;8141;52.664;5.074;2023-05-02T07:38:08;0.80;;;0.50;;
16073;SDS011;8141;52.664;5.074;2023-05-02T07:40:33;2.00;;;0.97;;
16073;SDS011;8141;52.664;5.074;2023-05-02T07:42:59;1.67;;;0.60;;
16073;SDS011;8141;52.664;5.074;2023-05-02T07:45:26;0.60;;;0.53;;
16073;SDS011;8141;52.664;5.074;2023-05-02T07:47:52;1.40;;;0.70;;
16073;SDS011;8141;52.664;5.074;2023-05-02T07:50:17;1.90;;;0.80;;
16073;SDS011;8141;52.664;5.074;2023-05-02T07:52:43;2.37;;;1.13;;
16073;SDS011;8141;52.664;5.074;2023-05-02T07:55:09;1.13;;;0.67;;
16073;SDS011;8141;52.664;5.074;2023-05-02T07:57:36;1.90;;;0.70;;
16073;SDS011;8141;52.664;5.074;2023-05-02T08:00:02;1.37;;;0.70;;
16073;SDS011;8141;52.664;5.074;2023-05-02T08:02:31;2.83;;;0.83;;
16073;SDS011;8141;52.664;5.074;2023-05-02T08:04:57;1.53;;;0.80;;
16073;SDS011;8141;52.664;5.074;2023-05-02T08:07:23;2.67;;;0.70;;
16073;SDS011;8141;52.664;5.074;2023-05-02T08:09:49;1.30;;;0.80;;
16073;SDS011;8141;52.664;5.074;2023-05-02T08:12:14;1.33;;;0.70;;
16073;SDS011;8141;52.664;5.074;2023-05-02T08:14:40;0.60;;;0.50;;
16073;SDS011;8141;52.664;5.074;2023-05-02T08:17:06;1.60;;;0.87;;
16073;SDS011;8141;52.664;5.074;2023-05-02T08:19:31;1.97;;;0.90;;
16073;SDS011;8141;52.664;5.074;2023-05-02T08:21:57;3.40;;;0.80;;
16073;SDS011;8141;52.664;5.074;2023-05-02T08:24:23;1.30;;;0.77;;
16073;SDS011;8141;52.664;5.074;2023-05-02T08:26:49;2.23;;;0.70;;
16073;SDS011;8141;52.664;5.074;2023-05-02T08:29:15;1.23;;;0.90;;
16073;SDS011;8141;52.664;5.074;2023-05-02T08:31:41;1.47;;;0.50;;
16073;SDS011;8141;52.664;5.074;2023-05-02T08:34:06;0.80;;;0.67;;
16073;SDS011;8141;52.664;5.074;2023-05-02T08:36:32;0.77;;;0.70;;
16073;SDS011;8141;52.664;5.074;2023-05-02T08:38:58;1.93;;;0.80;;
16073;SDS011;8141;52.664;5.074;2023-05-02T08:41:24;1.37;;;0.90;;
16073;SDS011;8141;52.664;5.074;2023-05-02T08:43:53;2.83;;;0.93;;
16073;SDS011;8141;52.664;5.074;2023-05-02T08:46:20;1.17;;;0.70;;
16073;SDS011;8141;52.664;5.074;2023-05-02T08:48:47;1.73;;;0.77;;
16073;SDS011;8141;52.664;5.074;2023-05-02T08:51:15;1.07;;;0.70;;
16073;SDS011;8141;52.664;5.074;2023-05-02T08:53:42;1.60;;;0.90;;
16073;SDS011;8141;52.664;5.074;2023-05-02T08:56:09;3.20;;;0.90;;
16073;SDS011;8141;52.664;5.074;2023-05-02T08:58:38;2.70;;;0.80;;
16073;SDS011;8141;52.664;5.074;2023-05-02T09:01:23;1.17;;;0.60;;
16073;SDS011;8141;52.664;5.074;2023-05-02T09:03:54;2.67;;;1.17;;
16073;SDS011;8141;52.664;5.074;2023-05-02T09:06:22;1.37;;;0.83;;
16073;SDS011;8141;52.664;5.074;2023-05-02T09:08:51;1.93;;;0.70;;
16073;SDS011;8141;52.664;5.074;2023-05-02T09:11:17;1.53;;;0.83;;
16073;SDS011;8141;52.664;5.074;2023-05-02T09:13:47;1.77;;;0.67;;
16073;SDS011;8141;52.664;5.074;2023-05-02T09:16:18;0.83;;;0.70;;
16073;SDS011;8141;52.664;5.074;2023-05-02T09:18:47;1.07;;;0.50;;
16073;SDS011;8141;52.664;5.074;2023-05-02T09:21:26;1.23;;;0.70;;
16073;SDS011;8141;52.664;5.074;2023-05-02T09:24:01;4.87;;;2.47;;
16073;SDS011;8141;52.664;5.074;2023-05-02T09:26:40;15.30;;;5.73;;
16073;SDS011;8141;52.664;5.074;2023-05-02T09:29:06;13.27;;;5.07;;
16073;SDS011;8141;52.664;5.074;2023-05-02T09:31:32;13.83;;;5.63;;
16073;SDS011;8141;52.664;5.074;2023-05-02T09:34:14;11.30;;;4.63;;
16073;SDS011;8141;52.664;5.074;2023-05-02T09:39:21;13.30;;;4.50;;
16073;SDS011;8141;52.664;5.074;2023-05-02T09:41:55;14.67;;;5.43;;
16073;SDS011;8141;52.664;5.074;2023-05-02T09:44:23;14.40;;;5.03;;
16073;SDS011;8141;52.664;5.074;2023-05-02T09:46:55;13.73;;;5.27;;
16073;SDS011;8141;52.664;5.074;2023-05-02T09:49:42;14.17;;;5.50;;
16073;SDS011;8141;52.664;5.074;2023-05-02T09:52:13;14.87;;;5.60;;
16073;SDS011;8141;52.664;5.074;2023-05-02T09:54:40;17.43;;;5.87;;
16073;SDS011;8141;52.664;5.074;2023-05-02T09:57:06;17.07;;;6.30;;
16073;SDS011;8141;52.664;5.074;2023-05-02T09:59:34;12.33;;;5.00;;
16073;SDS011;8141;52.664;5.074;2023-05-02T10:02:03;12.07;;;5.40;;
16073;SDS011;8141;52.664;5.074;2023-05-02T10:04:31;12.10;;;5.30;;
16073;SDS011;8141;52.664;5.074;2023-05-02T10:06:58;16.23;;;5.57;;
16073;SDS011;8141;52.664;5.074;2023-05-02T10:09:26;13.83;;;5.10;;
16073;SDS011;8141;52.664;5.074;2023-05-02T10:11:56;12.70;;;5.73;;
16073;SDS011;8141;52.664;5.074;2023-05-02T10:14:34;10.93;;;5.05;;
16073;SDS011;8141;52.664;5.074;2023-05-02T10:17:12;13.27;;;4.77;;
16073;SDS011;8141;52.664;5.074;2023-05-02T10:19:53;15.87;;;4.90;;
16073;SDS011;8141;52.664;5.074;2023-05-02T10:22:32;14.30;;;5.37;;
16073;SDS011;8141;52.664;5.074;2023-05-02T10:24:59;11.87;;;4.67;;
16073;SDS011;8141;52.664;5.074;2023-05-02T10:27:28;9.30;;;4.67;;
16073;SDS011;8141;52.664;5.074;2023-05-02T10:29:57;12.17;;;4.20;;
16073;SDS011;8141;52.664;5.074;2023-05-02T10:32:25;11.90;;;4.33;;
16073;SDS011;8141;52.664;5.074;2023-05-02T10:34:55;9.20;;;3.77;;
16073;SDS011;8141;52.664;5.074;2023-05-02T10:37:22;10.37;;;4.43;;
16073;SDS011;8141;52.664;5.074;2023-05-02T10:39:49;7.37;;;3.70;;
16073;SDS011;8141;52.664;5.074;2023-05-02T10:42:15;9.33;;;4.00;;
16073;SDS011;8141;52.664;5.074;2023-05-02T10:44:42;10.17;;;3.73;;
16073;SDS011;8141;52.664;5.074;2023-05-02T10:49:48;9.03;;;4.43;;
16073;SDS011;8141;52.664;5.074;2023-05-02T10:52:33;12.27;;;4.88;;
16073;SDS011;8141;52.664;5.074;2023-05-02T10:55:12;11.00;;;3.70;;
16073;SDS011;8141;52.664;5.074;2023-05-02T11:00:31;11.73;;;4.10;;
16073;SDS011;8141;52.664;5.074;2023-05-02T11:02:57;9.60;;;4.00;;
16073;SDS011;8141;52.664;5.074;2023-05-02T11:05:25;10.50;;;4.90;;
16073;SDS011;8141;52.664;5.074;2023-05-02T11:10:39;13.30;;;4.53;;
16073;SDS011;8141;52.664;5.074;2023-05-02T11:13:05;9.53;;;4.37;;
16073;SDS011;8141;52.664;5.074;2023-05-02T11:15:53;7.97;;;3.20;;
16073;SDS011;8141;52.664;5.074;2023-05-02T11:18:19;9.63;;;3.13;;
16073;SDS011;8141;52.664;5.074;2023-05-02T11:20:45;7.93;;;3.00;;
16073;SDS011;8141;52.664;5.074;2023-05-02T11:25:41;6.40;;;3.10;;
16073;SDS011;8141;52.664;5.074;2023-05-02T11:34:01;6.27;;;2.80;;
16073;SDS011;8141;52.664;5.074;2023-05-02T11:36:34;5.50;;;2.73;;
16073;SDS011;8141;52.664;5.074;2023-05-02T11:39:00;6.47;;;2.90;;
16073;SDS011;8141;52.664;5.074;2023-05-02T11:41:41;6.77;;;2.80;;
16073;SDS011;8141;52.664;5.074;2023-05-02T11:44:08;5.67;;;2.30;;
16073;SDS011;8141;52.664;5.074;2023-05-02T11:46:37;8.43;;;2.87;;
16073;SDS011;8141;52.664;5.074;2023-05-02T11:49:04;5.20;;;2.70;;
16073;SDS011;8141;52.664;5.074;2023-05-02T11:51:31;5.20;;;2.43;;
16073;SDS011;8141;52.664;5.074;2023-05-02T11:53:59;6.03;;;2.43;;
16073;SDS011;8141;52.664;5.074;2023-05-02T11:56:25;5.93;;;2.60;;
16073;SDS011;8141;52.664;5.074;2023-05-02T11:58:57;6.00;;;2.37;;
16073;SDS011;8141;52.664;5.074;2023-05-02T12:01:27;3.83;;;2.23;;
16073;SDS011;8141;52.664;5.074;2023-05-02T12:04:00;6.53;;;2.53;;
16073;SDS011;8141;52.664;5.074;2023-05-02T12:06:36;4.13;;;2.17;;
16073;SDS011;8141;52.664;5.074;2023-05-02T12:09:05;4.97;;;2.40;;
16073;SDS011;8141;52.664;5.074;2023-05-02T12:11:32;5.33;;;2.30;;
16073;SDS011;8141;52.664;5.074;2023-05-02T12:13:57;3.57;;;2.10;;
16073;SDS011;8141;52.664;5.074;2023-05-02T12:16:23;5.27;;;1.90;;
16073;SDS011;8141;52.664;5.074;2023-05-02T12:18:49;5.83;;;2.33;;
16073;SDS011;8141;52.664;5.074;2023-05-02T12:21:16;5.30;;;1.73;;
16073;SDS011;8141;52.664;5.074;2023-05-02T12:23:42;4.33;;;2.00;;
16073;SDS011;8141;52.664;5.074;2023-05-02T12:26:15;4.27;;;1.90;;
16073;SDS011;8141;52.664;5.074;2023-05-02T12:28:57;4.27;;;1.70;;
16073;SDS011;8141;52.664;5.074;2023-05-02T12:31:24;4.53;;;1.80;;
16073;SDS011;8141;52.664;5.074;2023-05-02T12:33:52;3.13;;;1.47;;
16073;SDS011;8141;52.664;5.074;2023-05-02T12:36:21;7.30;;;1.80;;
16073;SDS011;8141;52.664;5.074;2023-05-02T12:38:48;4.33;;;1.63;;
16073;SDS011;8141;52.664;5.074;2023-05-02T12:41:19;3.87;;;1.60;;
16073;SDS011;8141;52.664;5.074;2023-05-02T12:43:58;2.60;;;1.40;;
16073;SDS011;8141;52.664;5.074;2023-05-02T12:46:25;2.70;;;1.33;;
16073;SDS011;8141;52.664;5.074;2023-05-02T12:49:02;3.73;;;1.50;;
16073;SDS011;8141;52.664;5.074;2023-05-02T12:51:29;3.47;;;1.43;;
16073;SDS011;8141;52.664;5.074;2023-05-02T12:53:56;3.37;;;1.83;;
16073;SDS011;8141;52.664;5.074;2023-05-02T12:56:22;3.77;;;1.40;;
16073;SDS011;8141;52.664;5.074;2023-05-02T12:58:48;3.53;;;1.53;;
16073;SDS011;8141;52.664;5.074;2023-05-02T13:01:15;3.20;;;1.40;;
16073;SDS011;8141;52.664;5.074;2023-05-02T13:03:41;3.87;;;1.40;;
16073;SDS011;8141;52.664;5.074;2023-05-02T13:06:08;2.77;;;1.53;;
16073;SDS011;8141;52.664;5.074;2023-05-02T13:08:34;3.77;;;1.83;;
16073;SDS011;8141;52.664;5.074;2023-05-02T13:11:03;9.63;;;1.93;;
16073;SDS011;8141;52.664;5.074;2023-05-02T13:13:29;15.67;;;2.00;;
16073;SDS011;8141;52.664;5.074;2023-05-02T13:15:56;4.50;;;1.20;;
16073;SDS011;8141;52.664;5.074;2023-05-02T13:18:22;5.37;;;1.73;;
16073;SDS011;8141;52.664;5.074;2023-05-02T13:20:48;7.87;;;1.60;;
16073;SDS011;8141;52.664;5.074;2023-05-02T13:23:13;5.93;;;1.33;;
16073;SDS011;8141;52.664;5.074;2023-05-02T13:25:40;4.10;;;1.47;;
16073;SDS011;8141;52.664;5.074;2023-05-02T13:28:06;4.80;;;2.00;;
16073;SDS011;8141;52.664;5.074;2023-05-02T13:30:32;4.13;;;1.20;;
16073;SDS011;8141;52.664;5.074;2023-05-02T13:32:58;3.53;;;1.30;;
16073;SDS011;8141;52.664;5.074;2023-05-02T13:35:24;6.90;;;1.43;;
16073;SDS011;8141;52.664;5.074;2023-05-02T13:37:50;5.30;;;1.30;;
16073;SDS011;8141;52.664;5.074;2023-05-02T13:40:16;3.13;;;0.90;;
16073;SDS011;8141;52.664;5.074;2023-05-02T13:42:42;2.90;;;1.20;;
16073;SDS011;8141;52.664;5.074;2023-05-02T13:45:08;2.77;;;1.13;;
16073;SDS011;8141;52.664;5.074;2023-05-02T13:47:34;3.23;;;1.17;;
16073;SDS011;8141;52.664;5.074;2023-05-02T13:50:00;1.77;;;0.87;;
16073;SDS011;8141;52.664;5.074;2023-05-02T13:52:27;2.47;;;1.20;;
16073;SDS011;8141;52.664;5.074;2023-05-02T13:54:53;3.00;;;1.30;;
16073;SDS011;8141;52.664;5.074;2023-05-02T13:57:18;5.00;;;1.77;;
16073;SDS011;8141;52.664;5.074;2023-05-02T13:59:44;3.77;;;0.90;;
16073;SDS011;8141;52.664;5.074;2023-05-02T14:02:10;3.20;;;1.20;;
16073;SDS011;8141;52.664;5.074;2023-05-02T14:04:35;2.77;;;1.17;;
16073;SDS011;8141;52.664;5.074;2023-05-02T14:07:01;1.93;;;0.90;;
16073;SDS011;8141;52.664;5.074;2023-05-02T14:09:27;2.17;;;1.20;;
16073;SDS011;8141;52.664;5.074;2023-05-02T14:11:53;2.00;;;0.93;;
16073;SDS011;8141;52.664;5.074;2023-05-02T14:14:19;2.27;;;1.00;;
16073;SDS011;8141;52.664;5.074;2023-05-02T14:16:45;1.00;;;0.63;;
16073;SDS011;8141;52.664;5.074;2023-05-02T14:19:14;4.83;;;0.93;;
16073;SDS011;8141;52.664;5.074;2023-05-02T14:21:39;2.30;;;1.17;;
16073;SDS011;8141;52.664;5.074;2023-05-02T14:24:05;1.60;;;0.90;;
16073;SDS011;8141;52.664;5.074;2023-05-02T14:26:31;2.57;;;1.10;;
16073;SDS011;8141;52.664;5.074;2023-05-02T14:28:57;2.80;;;1.00;;
16073;SDS011;8141;52.664;5.074;2023-05-02T14:31:23;2.33;;;0.80;;
16073;SDS011;8141;52.664;5.074;2023-05-02T14:33:49;2.73;;;0.83;;
16073;SDS011;8141;52.664;5.074;2023-05-02T14:36:14;3.90;;;1.10;;
16073;SDS011;8141;52.664;5.074;2023-05-02T14:38:40;1.17;;;0.73;;
16073;SDS011;8141;52.664;5.074;2023-05-02T14:41:06;2.87;;;1.20;;
16073;SDS011;8141;52.664;5.074;2023-05-02T14:43:32;1.37;;;0.80;;
16073;SDS011;8141;52.664;5.074;2023-05-02T14:45:57;4.33;;;1.60;;
16073;SDS011;8141;52.664;5.074;2023-05-02T14:48:23;1.87;;;0.87;;
16073;SDS011;8141;52.664;5.074;2023-05-02T14:50:49;1.93;;;0.70;;
16073;SDS011;8141;52.664;5.074;2023-05-02T14:53:15;1.37;;;1.00;;
16073;SDS011;8141;52.664;5.074;2023-05-02T14:55:41;2.30;;;0.60;;
16073;SDS011;8141;52.664;5.074;2023-05-02T14:58:08;1.00;;;0.70;;
16073;SDS011;8141;52.664;5.074;2023-05-02T15:00:34;2.80;;;1.10;;
16073;SDS011;8141;52.664;5.074;2023-05-02T15:03:04;6.10;;;1.27;;
16073;SDS011;8141;52.664;5.074;2023-05-02T15:05:30;3.07;;;0.73;;
16073;SDS011;8141;52.664;5.074;2023-05-02T15:07:57;2.37;;;0.77;;
16073;SDS011;8141;52.664;5.074;2023-05-02T15:10:23;2.93;;;0.90;;
16073;SDS011;8141;52.664;5.074;2023-05-02T15:12:49;2.33;;;1.00;;
16073;SDS011;8141;52.664;5.074;2023-05-02T15:15:15;3.20;;;0.90;;
16073;SDS011;8141;52.664;5.074;2023-05-02T15:17:42;2.30;;;0.97;;
16073;SDS011;8141;52.664;5.074;2023-05-02T15:20:08;1.57;;;0.70;;
16073;SDS011;8141;52.664;5.074;2023-05-02T15:22:35;2.80;;;0.70;;
16073;SDS011;8141;52.664;5.074;2023-05-02T15:25:01;2.53;;;0.83;;
16073;SDS011;8141;52.664;5.074;2023-05-02T15:27:27;1.33;;;0.77;;
16073;SDS011;8141;52.664;5.074;2023-05-02T15:29:53;1.10;;;0.70;;
16073;SDS011;8141;52.664;5.074;2023-05-02T15:32:18;1.80;;;0.70;;
16073;SDS011;8141;52.664;5.074;2023-05-02T15:34:45;0.83;;;0.53;;
16073;SDS011;8141;52.664;5.074;2023-05-02T15:37:11;1.93;;;0.70;;
16073;SDS011;8141;52.664;5.074;2023-05-02T15:39:37;1.80;;;0.73;;